sensor_id;sensor_type;location;lat;lon;timestamp;P1;durP1;ratioP1;P2;durP2;ratioP2
6043;SDS011;3050;42.660;23.276;2023-07-31T00:02:17;4.47;;;2.22;;
6043;SDS011;3050;42.660;23.276;2023-07-31T00:04:43;1.80;;;1.80;;
6043;SDS011;3050;42.660;23.276;2023-07-31T00:07:10;2.13;;;2.03;;
6043;SDS011;3050;42.660;23.276;2023-07-31T00:09:37;2.05;;;1.88;;
6043;SDS011;3050;42.660;23.276;2023-07-31T00:12:04;2.40;;;2.05;;
6043;SDS011;3050;42.660;23.276;2023-07-31T00:14:33;1.85;;;1.75;;
6043;SDS011;3050;42.660;23.276;2023-07-31T00:17:01;1.50;;;1.50;;
6043;SDS011;3050;42.660;23.276;2023-07-31T00:19:29;1.80;;;1.70;;
6043;SDS011;3050;42.660;23.276;2023-07-31T00:21:55;1.80;;;1.50;;
6043;SDS011;3050;42.660;23.276;2023-07-31T00:24:23;1.92;;;1.67;;
6043;SDS011;3050;42.660;23.276;2023-07-31T00:26:49;1.95;;;1.85;;
6043;SDS011;3050;42.660;23.276;2023-07-31T00:29:16;2.97;;;2.20;;
6043;SDS011;3050;42.660;23.276;2023-07-31T00:31:45;2.38;;;2.03;;
6043;SDS011;3050;42.660;23.276;2023-07-31T00:34:12;2.25;;;1.95;;
6043;SDS011;3050;42.660;23.276;2023-07-31T00:36:41;2.47;;;2.28;;
6043;SDS011;3050;42.660;23.276;2023-07-31T00:39:08;2.05;;;1.95;;
6043;SDS011;3050;42.660;23.276;2023-07-31T00:41:39;2.30;;;2.20;;
6043;SDS011;3050;42.660;23.276;2023-07-31T00:44:06;3.53;;;2.70;;
6043;SDS011;3050;42.660;23.276;2023-07-31T00:46:34;2.38;;;2.28;;
6043;SDS011;3050;42.660;23.276;2023-07-31T00:49:04;2.40;;;2.30;;
6043;SDS011;3050;42.660;23.276;2023-07-31T00:51:31;2.47;;;2.33;;
6043;SDS011;3050;42.660;23.276;2023-07-31T00:53:59;2.58;;;2.47;;
6043;SDS011;3050;42.660;23.276;2023-07-31T00:56:28;3.10;;;2.90;;
6043;SDS011;3050;42.660;23.276;2023-07-31T00:58:55;5.25;;;2.92;;
6043;SDS011;3050;42.660;23.276;2023-07-31T01:01:21;3.22;;;2.92;;
6043;SDS011;3050;42.660;23.276;2023-07-31T01:03:48;3.33;;;3.03;;
6043;SDS011;3050;42.660;23.276;2023-07-31T01:06:25;3.65;;;3.20;;
6043;SDS011;3050;42.660;23.276;2023-07-31T01:08:54;4.35;;;3.95;;
6043;SDS011;3050;42.660;23.276;2023-07-31T01:11:26;4.40;;;4.00;;
6043;SDS011;3050;42.660;23.276;2023-07-31T01:13:54;4.95;;;4.15;;
6043;SDS011;3050;42.660;23.276;2023-07-31T01:16:20;6.65;;;4.57;;
6043;SDS011;3050;42.660;23.276;2023-07-31T01:18:47;7.38;;;5.30;;
6043;SDS011;3050;42.660;23.276;2023-07-31T01:24:12;7.47;;;5.72;;
6043;SDS011;3050;42.660;23.276;2023-07-31T01:26:45;7.18;;;5.32;;
6043;SDS011;3050;42.660;23.276;2023-07-31T01:29:15;6.10;;;5.47;;
6043;SDS011;3050;42.660;23.276;2023-07-31T01:31:43;8.98;;;4.95;;
6043;SDS011;3050;42.660;23.276;2023-07-31T01:34:13;8.18;;;5.53;;
6043;SDS011;3050;42.660;23.276;2023-07-31T01:36:41;9.30;;;6.10;;
6043;SDS011;3050;42.660;23.276;2023-07-31T01:39:08;11.43;;;7.80;;
6043;SDS011;3050;42.660;23.276;2023-07-31T01:41:38;8.18;;;6.22;;
6043;SDS011;3050;42.660;23.276;2023-07-31T01:44:08;10.73;;;7.38;;
6043;SDS011;3050;42.660;23.276;2023-07-31T01:46:35;9.27;;;6.63;;
6043;SDS011;3050;42.660;23.276;2023-07-31T01:49:02;10.60;;;7.50;;
6043;SDS011;3050;42.660;23.276;2023-07-31T01:51:30;18.08;;;8.68;;
6043;SDS011;3050;42.660;23.276;2023-07-31T01:53:59;13.80;;;7.80;;
6043;SDS011;3050;42.660;23.276;2023-07-31T01:56:26;12.13;;;7.93;;
6043;SDS011;3050;42.660;23.276;2023-07-31T01:58:53;11.23;;;6.88;;
6043;SDS011;3050;42.660;23.276;2023-07-31T02:01:21;11.15;;;6.90;;
6043;SDS011;3050;42.660;23.276;2023-07-31T02:03:48;10.68;;;7.63;;
6043;SDS011;3050;42.660;23.276;2023-07-31T02:06:16;13.13;;;7.95;;
6043;SDS011;3050;42.660;23.276;2023-07-31T02:08:43;13.40;;;8.30;;
6043;SDS011;3050;42.660;23.276;2023-07-31T02:11:10;11.05;;;8.40;;
6043;SDS011;3050;42.660;23.276;2023-07-31T02:13:37;13.57;;;8.35;;
6043;SDS011;3050;42.660;23.276;2023-07-31T02:16:04;16.45;;;8.80;;
6043;SDS011;3050;42.660;23.276;2023-07-31T02:18:32;11.27;;;8.70;;
6043;SDS011;3050;42.660;23.276;2023-07-31T02:20:59;19.65;;;8.15;;
6043;SDS011;3050;42.660;23.276;2023-07-31T02:23:25;9.98;;;8.02;;
6043;SDS011;3050;42.660;23.276;2023-07-31T02:25:51;10.68;;;7.97;;
6043;SDS011;3050;42.660;23.276;2023-07-31T02:28:18;11.73;;;7.40;;
6043;SDS011;3050;42.660;23.276;2023-07-31T02:30:45;8.82;;;7.05;;
6043;SDS011;3050;42.660;23.276;2023-07-31T02:33:12;10.43;;;6.85;;
6043;SDS011;3050;42.660;23.276;2023-07-31T02:35:40;10.18;;;7.38;;
6043;SDS011;3050;42.660;23.276;2023-07-31T02:38:07;11.25;;;7.95;;
6043;SDS011;3050;42.660;23.276;2023-07-31T02:40:34;11.23;;;7.70;;
6043;SDS011;3050;42.660;23.276;2023-07-31T02:43:01;10.30;;;7.35;;
6043;SDS011;3050;42.660;23.276;2023-07-31T02:45:28;14.98;;;7.50;;
6043;SDS011;3050;42.660;23.276;2023-07-31T02:48:00;15.45;;;8.73;;
6043;SDS011;3050;42.660;23.276;2023-07-31T02:50:27;13.25;;;7.22;;
6043;SDS011;3050;42.660;23.276;2023-07-31T02:52:56;12.45;;;7.07;;
6043;SDS011;3050;42.660;23.276;2023-07-31T02:55:23;9.15;;;7.85;;
6043;SDS011;3050;42.660;23.276;2023-07-31T02:57:50;12.90;;;7.30;;
6043;SDS011;3050;42.660;23.276;2023-07-31T03:00:20;13.93;;;8.23;;
6043;SDS011;3050;42.660;23.276;2023-07-31T03:02:47;12.23;;;7.65;;
6043;SDS011;3050;42.660;23.276;2023-07-31T03:05:14;12.60;;;7.57;;
6043;SDS011;3050;42.660;23.276;2023-07-31T03:07:43;11.88;;;6.65;;
6043;SDS011;3050;42.660;23.276;2023-07-31T03:10:12;13.00;;;8.05;;
6043;SDS011;3050;42.660;23.276;2023-07-31T03:12:39;11.45;;;7.13;;
6043;SDS011;3050;42.660;23.276;2023-07-31T03:15:07;11.25;;;7.53;;
6043;SDS011;3050;42.660;23.276;2023-07-31T03:17:34;13.20;;;9.00;;
6043;SDS011;3050;42.660;23.276;2023-07-31T03:20:01;11.88;;;7.70;;
6043;SDS011;3050;42.660;23.276;2023-07-31T03:22:28;13.77;;;7.72;;
6043;SDS011;3050;42.660;23.276;2023-07-31T03:24:55;12.35;;;7.53;;
6043;SDS011;3050;42.660;23.276;2023-07-31T03:27:23;13.30;;;8.35;;
6043;SDS011;3050;42.660;23.276;2023-07-31T03:29:50;11.18;;;7.72;;
6043;SDS011;3050;42.660;23.276;2023-07-31T03:32:17;11.10;;;7.78;;
6043;SDS011;3050;42.660;23.276;2023-07-31T03:34:44;14.20;;;7.65;;
6043;SDS011;3050;42.660;23.276;2023-07-31T03:37:11;9.40;;;7.32;;
6043;SDS011;3050;42.660;23.276;2023-07-31T03:39:37;11.00;;;7.10;;
6043;SDS011;3050;42.660;23.276;2023-07-31T03:42:04;10.80;;;7.78;;
6043;SDS011;3050;42.660;23.276;2023-07-31T03:44:34;14.60;;;8.90;;
6043;SDS011;3050;42.660;23.276;2023-07-31T03:47:01;10.30;;;7.35;;
6043;SDS011;3050;42.660;23.276;2023-07-31T03:49:28;14.90;;;8.70;;
6043;SDS011;3050;42.660;23.276;2023-07-31T03:51:55;11.23;;;7.22;;
6043;SDS011;3050;42.660;23.276;2023-07-31T03:54:21;12.48;;;7.82;;
6043;SDS011;3050;42.660;23.276;2023-07-31T03:56:48;13.23;;;8.20;;
6043;SDS011;3050;42.660;23.276;2023-07-31T03:59:15;16.67;;;8.57;;
6043;SDS011;3050;42.660;23.276;2023-07-31T04:01:43;14.43;;;8.07;;
6043;SDS011;3050;42.660;23.276;2023-07-31T04:04:10;13.65;;;7.65;;
6043;SDS011;3050;42.660;23.276;2023-07-31T04:06:37;12.65;;;8.57;;
6043;SDS011;3050;42.660;23.276;2023-07-31T04:09:04;18.23;;;8.13;;
6043;SDS011;3050;42.660;23.276;2023-07-31T04:11:31;12.15;;;7.70;;
6043;SDS011;3050;42.660;23.276;2023-07-31T04:14:01;13.48;;;8.27;;
6043;SDS011;3050;42.660;23.276;2023-07-31T04:16:28;12.55;;;8.23;;
6043;SDS011;3050;42.660;23.276;2023-07-31T04:18:56;15.77;;;8.43;;
6043;SDS011;3050;42.660;23.276;2023-07-31T04:21:23;12.90;;;8.35;;
6043;SDS011;3050;42.660;23.276;2023-07-31T04:23:54;12.05;;;6.70;;
6043;SDS011;3050;42.660;23.276;2023-07-31T04:26:21;14.02;;;7.85;;
6043;SDS011;3050;42.660;23.276;2023-07-31T04:28:48;10.57;;;7.95;;
6043;SDS011;3050;42.660;23.276;2023-07-31T04:31:22;12.15;;;7.63;;
6043;SDS011;3050;42.660;23.276;2023-07-31T04:33:50;12.05;;;7.18;;
6043;SDS011;3050;42.660;23.276;2023-07-31T04:36:18;13.93;;;8.07;;
6043;SDS011;3050;42.660;23.276;2023-07-31T04:38:45;13.90;;;8.02;;
6043;SDS011;3050;42.660;23.276;2023-07-31T04:41:12;12.52;;;7.22;;
6043;SDS011;3050;42.660;23.276;2023-07-31T04:43:39;11.60;;;7.50;;
6043;SDS011;3050;42.660;23.276;2023-07-31T04:46:06;15.77;;;7.35;;
6043;SDS011;3050;42.660;23.276;2023-07-31T04:48:33;13.07;;;7.45;;
6043;SDS011;3050;42.660;23.276;2023-07-31T04:51:00;10.93;;;6.90;;
6043;SDS011;3050;42.660;23.276;2023-07-31T04:53:34;10.25;;;7.80;;
6043;SDS011;3050;42.660;23.276;2023-07-31T04:56:01;15.57;;;7.72;;
6043;SDS011;3050;42.660;23.276;2023-07-31T04:58:28;11.18;;;6.65;;
6043;SDS011;3050;42.660;23.276;2023-07-31T05:00:55;11.95;;;7.75;;
6043;SDS011;3050;42.660;23.276;2023-07-31T05:03:22;8.15;;;6.90;;
6043;SDS011;3050;42.660;23.276;2023-07-31T05:05:49;9.65;;;7.70;;
6043;SDS011;3050;42.660;23.276;2023-07-31T05:08:16;10.35;;;7.13;;
6043;SDS011;3050;42.660;23.276;2023-07-31T05:10:45;12.20;;;6.82;;
6043;SDS011;3050;42.660;23.276;2023-07-31T05:13:14;6.80;;;6.00;;
6043;SDS011;3050;42.660;23.276;2023-07-31T05:15:43;6.47;;;5.80;;
6043;SDS011;3050;42.660;23.276;2023-07-31T05:18:09;9.05;;;6.93;;
6043;SDS011;3050;42.660;23.276;2023-07-31T05:20:36;9.00;;;7.10;;
6043;SDS011;3050;42.660;23.276;2023-07-31T05:23:03;5.93;;;5.53;;
6043;SDS011;3050;42.660;23.276;2023-07-31T05:25:32;7.20;;;6.47;;
6043;SDS011;3050;42.660;23.276;2023-07-31T05:28:04;5.93;;;4.70;;
6043;SDS011;3050;42.660;23.276;2023-07-31T05:30:30;5.93;;;5.43;;
6043;SDS011;3050;42.660;23.276;2023-07-31T05:32:58;5.63;;;5.03;;
6043;SDS011;3050;42.660;23.276;2023-07-31T05:35:27;7.30;;;6.00;;
6043;SDS011;3050;42.660;23.276;2023-07-31T05:37:54;7.43;;;5.75;;
6043;SDS011;3050;42.660;23.276;2023-07-31T05:40:21;6.30;;;5.30;;
6043;SDS011;3050;42.660;23.276;2023-07-31T05:42:49;4.85;;;4.30;;
6043;SDS011;3050;42.660;23.276;2023-07-31T05:45:20;7.15;;;4.65;;
6043;SDS011;3050;42.660;23.276;2023-07-31T05:47:47;4.57;;;4.28;;
6043;SDS011;3050;42.660;23.276;2023-07-31T05:50:14;4.18;;;3.83;;
6043;SDS011;3050;42.660;23.276;2023-07-31T05:52:44;4.00;;;3.70;;
6043;SDS011;3050;42.660;23.276;2023-07-31T05:55:14;4.70;;;4.32;;
6043;SDS011;3050;42.660;23.276;2023-07-31T05:57:41;3.35;;;3.15;;
6043;SDS011;3050;42.660;23.276;2023-07-31T06:00:08;3.55;;;3.35;;
6043;SDS011;3050;42.660;23.276;2023-07-31T06:02:40;3.58;;;3.38;;
6043;SDS011;3050;42.660;23.276;2023-07-31T06:05:07;3.22;;;3.08;;
6043;SDS011;3050;42.660;23.276;2023-07-31T06:07:34;2.85;;;2.65;;
6043;SDS011;3050;42.660;23.276;2023-07-31T06:10:02;3.95;;;2.60;;
6043;SDS011;3050;42.660;23.276;2023-07-31T06:12:30;3.03;;;2.88;;
6043;SDS011;3050;42.660;23.276;2023-07-31T06:14:58;2.25;;;2.15;;
6043;SDS011;3050;42.660;23.276;2023-07-31T06:17:24;2.50;;;2.40;;
6043;SDS011;3050;42.660;23.276;2023-07-31T06:19:53;2.15;;;2.05;;
6043;SDS011;3050;42.660;23.276;2023-07-31T06:22:20;2.40;;;2.13;;
6043;SDS011;3050;42.660;23.276;2023-07-31T06:24:48;1.58;;;1.58;;
6043;SDS011;3050;42.660;23.276;2023-07-31T06:27:15;1.70;;;1.60;;
6043;SDS011;3050;42.660;23.276;2023-07-31T06:29:42;1.65;;;1.65;;
6043;SDS011;3050;42.660;23.276;2023-07-31T06:32:14;1.83;;;1.83;;
6043;SDS011;3050;42.660;23.276;2023-07-31T06:34:45;1.67;;;1.40;;
6043;SDS011;3050;42.660;23.276;2023-07-31T06:37:16;1.50;;;1.40;;
6043;SDS011;3050;42.660;23.276;2023-07-31T06:39:43;1.73;;;1.63;;
6043;SDS011;3050;42.660;23.276;2023-07-31T06:42:09;2.20;;;2.10;;
6043;SDS011;3050;42.660;23.276;2023-07-31T06:44:37;1.52;;;1.52;;
6043;SDS011;3050;42.660;23.276;2023-07-31T06:47:04;1.50;;;1.40;;
6043;SDS011;3050;42.660;23.276;2023-07-31T06:49:31;1.58;;;1.48;;
6043;SDS011;3050;42.660;23.276;2023-07-31T06:51:59;2.10;;;2.00;;
6043;SDS011;3050;42.660;23.276;2023-07-31T06:54:28;4.68;;;2.00;;
6043;SDS011;3050;42.660;23.276;2023-07-31T06:56:55;1.70;;;1.60;;
6043;SDS011;3050;42.660;23.276;2023-07-31T06:59:23;3.03;;;1.42;;
6043;SDS011;3050;42.660;23.276;2023-07-31T07:01:50;4.03;;;2.42;;
6043;SDS011;3050;42.660;23.276;2023-07-31T07:04:17;1.50;;;1.40;;
6043;SDS011;3050;42.660;23.276;2023-07-31T07:06:44;1.30;;;1.30;;
6043;SDS011;3050;42.660;23.276;2023-07-31T07:09:13;1.60;;;1.50;;
6043;SDS011;3050;42.660;23.276;2023-07-31T07:11:42;1.80;;;1.70;;
6043;SDS011;3050;42.660;23.276;2023-07-31T07:14:09;2.72;;;2.30;;
6043;SDS011;3050;42.660;23.276;2023-07-31T07:16:36;1.27;;;1.27;;
6043;SDS011;3050;42.660;23.276;2023-07-31T07:19:06;1.50;;;1.50;;
6043;SDS011;3050;42.660;23.276;2023-07-31T07:21:33;1.60;;;1.50;;
6043;SDS011;3050;42.660;23.276;2023-07-31T07:24:01;1.20;;;1.10;;
6043;SDS011;3050;42.660;23.276;2023-07-31T07:26:27;1.30;;;1.30;;
6043;SDS011;3050;42.660;23.276;2023-07-31T07:28:56;1.30;;;1.30;;
6043;SDS011;3050;42.660;23.276;2023-07-31T07:31:24;1.15;;;1.15;;
6043;SDS011;3050;42.660;23.276;2023-07-31T07:33:51;2.05;;;1.52;;
6043;SDS011;3050;42.660;23.276;2023-07-31T07:36:18;1.15;;;1.15;;
6043;SDS011;3050;42.660;23.276;2023-07-31T07:38:45;1.77;;;1.67;;
6043;SDS011;3050;42.660;23.276;2023-07-31T07:41:11;1.33;;;1.23;;
6043;SDS011;3050;42.660;23.276;2023-07-31T07:43:39;1.20;;;1.20;;
6043;SDS011;3050;42.660;23.276;2023-07-31T07:46:08;1.33;;;1.33;;
6043;SDS011;3050;42.660;23.276;2023-07-31T07:48:35;1.83;;;1.40;;
6043;SDS011;3050;42.660;23.276;2023-07-31T07:51:02;1.40;;;1.35;;
6043;SDS011;3050;42.660;23.276;2023-07-31T07:53:31;1.55;;;1.55;;
6043;SDS011;3050;42.660;23.276;2023-07-31T07:55:59;1.40;;;1.40;;
6043;SDS011;3050;42.660;23.276;2023-07-31T07:58:26;1.48;;;1.48;;
6043;SDS011;3050;42.660;23.276;2023-07-31T08:00:54;1.40;;;1.40;;
6043;SDS011;3050;42.660;23.276;2023-07-31T08:03:23;1.13;;;1.13;;
6043;SDS011;3050;42.660;23.276;2023-07-31T08:05:50;1.13;;;1.13;;
6043;SDS011;3050;42.660;23.276;2023-07-31T08:08:16;1.60;;;1.40;;
6043;SDS011;3050;42.660;23.276;2023-07-31T08:10:45;1.38;;;1.38;;
6043;SDS011;3050;42.660;23.276;2023-07-31T08:13:11;2.97;;;1.50;;
6043;SDS011;3050;42.660;23.276;2023-07-31T08:15:39;1.52;;;1.42;;
6043;SDS011;3050;42.660;23.276;2023-07-31T08:18:08;1.65;;;1.65;;
6043;SDS011;3050;42.660;23.276;2023-07-31T08:20:36;1.70;;;1.50;;
6043;SDS011;3050;42.660;23.276;2023-07-31T08:23:05;2.05;;;1.45;;
6043;SDS011;3050;42.660;23.276;2023-07-31T08:25:34;1.30;;;1.30;;
6043;SDS011;3050;42.660;23.276;2023-07-31T08:28:01;1.30;;;1.30;;
6043;SDS011;3050;42.660;23.276;2023-07-31T08:30:28;3.17;;;1.52;;
6043;SDS011;3050;42.660;23.276;2023-07-31T08:32:55;1.52;;;1.42;;
6043;SDS011;3050;42.660;23.276;2023-07-31T08:35:23;1.65;;;1.60;;
6043;SDS011;3050;42.660;23.276;2023-07-31T08:37:53;3.45;;;1.50;;
6043;SDS011;3050;42.660;23.276;2023-07-31T08:40:23;2.17;;;1.10;;
6043;SDS011;3050;42.660;23.276;2023-07-31T08:42:52;1.33;;;1.33;;
6043;SDS011;3050;42.660;23.276;2023-07-31T08:45:22;1.30;;;1.30;;
6043;SDS011;3050;42.660;23.276;2023-07-31T08:47:49;2.28;;;1.52;;
6043;SDS011;3050;42.660;23.276;2023-07-31T08:50:20;1.27;;;1.27;;
6043;SDS011;3050;42.660;23.276;2023-07-31T08:52:48;1.13;;;1.02;;
6043;SDS011;3050;42.660;23.276;2023-07-31T08:55:19;1.60;;;1.50;;
6043;SDS011;3050;42.660;23.276;2023-07-31T08:57:50;1.45;;;1.30;;
6043;SDS011;3050;42.660;23.276;2023-07-31T09:00:17;1.50;;;1.40;;
6043;SDS011;3050;42.660;23.276;2023-07-31T09:02:48;5.28;;;1.20;;
6043;SDS011;3050;42.660;23.276;2023-07-31T09:05:21;1.35;;;1.35;;
6043;SDS011;3050;42.660;23.276;2023-07-31T09:07:52;1.48;;;1.48;;
6043;SDS011;3050;42.660;23.276;2023-07-31T09:10:25;2.75;;;1.15;;
6043;SDS011;3050;42.660;23.276;2023-07-31T09:12:56;3.28;;;1.35;;
6043;SDS011;3050;42.660;23.276;2023-07-31T09:15:24;1.30;;;1.30;;
6043;SDS011;3050;42.660;23.276;2023-07-31T09:17:58;1.60;;;1.50;;
6043;SDS011;3050;42.660;23.276;2023-07-31T09:20:26;1.25;;;1.25;;
6043;SDS011;3050;42.660;23.276;2023-07-31T09:22:57;1.05;;;1.05;;
6043;SDS011;3050;42.660;23.276;2023-07-31T09:25:40;1.50;;;1.50;;
6043;SDS011;3050;42.660;23.276;2023-07-31T09:28:14;1.90;;;1.80;;
6043;SDS011;3050;42.660;23.276;2023-07-31T09:30:46;2.88;;;1.50;;
6043;SDS011;3050;42.660;23.276;2023-07-31T09:33:18;2.55;;;1.38;;
6043;SDS011;3050;42.660;23.276;2023-07-31T09:35:53;1.77;;;1.73;;
6043;SDS011;3050;42.660;23.276;2023-07-31T09:38:23;1.00;;;1.00;;
6043;SDS011;3050;42.660;23.276;2023-07-31T09:43:38;1.40;;;1.40;;
6043;SDS011;3050;42.660;23.276;2023-07-31T09:46:05;1.58;;;1.58;;
6043;SDS011;3050;42.660;23.276;2023-07-31T09:48:43;1.40;;;1.40;;
6043;SDS011;3050;42.660;23.276;2023-07-31T09:51:15;1.52;;;1.42;;
6043;SDS011;3050;42.660;23.276;2023-07-31T09:53:43;1.58;;;1.50;;
6043;SDS011;3050;42.660;23.276;2023-07-31T09:56:20;1.10;;;1.10;;
6043;SDS011;3050;42.660;23.276;2023-07-31T10:01:39;4.22;;;2.25;;
6043;SDS011;3050;42.660;23.276;2023-07-31T10:04:27;1.63;;;1.52;;
6043;SDS011;3050;42.660;23.276;2023-07-31T10:06:57;4.72;;;1.38;;
6043;SDS011;3050;42.660;23.276;2023-07-31T10:09:26;1.20;;;1.20;;
6043;SDS011;3050;42.660;23.276;2023-07-31T10:11:59;1.15;;;1.15;;
6043;SDS011;3050;42.660;23.276;2023-07-31T10:14:35;1.10;;;1.10;;
6043;SDS011;3050;42.660;23.276;2023-07-31T10:17:04;1.10;;;1.10;;
6043;SDS011;3050;42.660;23.276;2023-07-31T10:19:31;4.30;;;1.35;;
6043;SDS011;3050;42.660;23.276;2023-07-31T10:21:59;1.08;;;1.08;;
6043;SDS011;3050;42.660;23.276;2023-07-31T10:24:27;1.10;;;1.10;;
6043;SDS011;3050;42.660;23.276;2023-07-31T10:26:54;1.00;;;1.00;;
6043;SDS011;3050;42.660;23.276;2023-07-31T10:29:25;1.13;;;1.13;;
6043;SDS011;3050;42.660;23.276;2023-07-31T10:31:52;1.30;;;1.20;;
6043;SDS011;3050;42.660;23.276;2023-07-31T10:34:21;1.23;;;1.23;;
6043;SDS011;3050;42.660;23.276;2023-07-31T10:36:48;1.17;;;1.17;;
6043;SDS011;3050;42.660;23.276;2023-07-31T10:39:34;0.90;;;0.90;;
6043;SDS011;3050;42.660;23.276;2023-07-31T10:42:09;1.08;;;1.08;;
6043;SDS011;3050;42.660;23.276;2023-07-31T10:44:36;1.17;;;1.17;;
6043;SDS011;3050;42.660;23.276;2023-07-31T10:47:04;0.90;;;0.90;;
6043;SDS011;3050;42.660;23.276;2023-07-31T10:49:34;1.10;;;1.10;;
6043;SDS011;3050;42.660;23.276;2023-07-31T10:52:03;0.90;;;0.90;;
6043;SDS011;3050;42.660;23.276;2023-07-31T10:54:30;1.10;;;1.10;;
6043;SDS011;3050;42.660;23.276;2023-07-31T10:56:56;1.13;;;1.13;;
6043;SDS011;3050;42.660;23.276;2023-07-31T10:59:26;0.90;;;0.90;;
6043;SDS011;3050;42.660;23.276;2023-07-31T11:01:54;0.98;;;0.98;;
6043;SDS011;3050;42.660;23.276;2023-07-31T11:04:22;0.95;;;0.95;;
6043;SDS011;3050;42.660;23.276;2023-07-31T11:07:00;6.53;;;1.27;;
6043;SDS011;3050;42.660;23.276;2023-07-31T11:09:28;0.90;;;0.90;;
6043;SDS011;3050;42.660;23.276;2023-07-31T11:11:57;0.95;;;0.95;;
6043;SDS011;3050;42.660;23.276;2023-07-31T11:14:24;1.52;;;0.88;;
6043;SDS011;3050;42.660;23.276;2023-07-31T11:16:53;1.20;;;1.05;;
6043;SDS011;3050;42.660;23.276;2023-07-31T11:19:35;0.90;;;0.90;;
6043;SDS011;3050;42.660;23.276;2023-07-31T11:22:08;3.97;;;0.90;;
6043;SDS011;3050;42.660;23.276;2023-07-31T11:24:38;1.00;;;1.00;;
6043;SDS011;3050;42.660;23.276;2023-07-31T11:27:10;0.70;;;0.70;;
6043;SDS011;3050;42.660;23.276;2023-07-31T11:29:37;1.20;;;1.20;;
6043;SDS011;3050;42.660;23.276;2023-07-31T11:32:29;0.88;;;0.88;;
6043;SDS011;3050;42.660;23.276;2023-07-31T11:35:12;1.65;;;1.00;;
6043;SDS011;3050;42.660;23.276;2023-07-31T11:46:59;1.23;;;1.15;;
6043;SDS011;3050;42.660;23.276;2023-07-31T11:49:27;1.55;;;1.05;;
6043;SDS011;3050;42.660;23.276;2023-07-31T11:52:08;1.75;;;1.73;;
6043;SDS011;3050;42.660;23.276;2023-07-31T11:54:36;1.20;;;1.10;;
6043;SDS011;3050;42.660;23.276;2023-07-31T11:57:06;2.33;;;1.23;;
6043;SDS011;3050;42.660;23.276;2023-07-31T11:59:49;1.30;;;1.30;;
6043;SDS011;3050;42.660;23.276;2023-07-31T12:19:35;2.10;;;2.00;;
6043;SDS011;3050;42.660;23.276;2023-07-31T12:22:10;2.50;;;2.40;;
6043;SDS011;3050;42.660;23.276;2023-07-31T12:24:37;3.17;;;2.58;;
6043;SDS011;3050;42.660;23.276;2023-07-31T12:27:08;2.88;;;2.78;;
6043;SDS011;3050;42.660;23.276;2023-07-31T12:29:35;2.30;;;2.20;;
6043;SDS011;3050;42.660;23.276;2023-07-31T12:32:03;2.80;;;2.70;;
6043;SDS011;3050;42.660;23.276;2023-07-31T12:34:31;2.10;;;2.00;;
6043;SDS011;3050;42.660;23.276;2023-07-31T12:37:00;2.97;;;2.58;;
6043;SDS011;3050;42.660;23.276;2023-07-31T12:39:30;3.05;;;2.85;;
6043;SDS011;3050;42.660;23.276;2023-07-31T12:42:00;2.30;;;2.20;;
6043;SDS011;3050;42.660;23.276;2023-07-31T12:44:28;3.90;;;2.53;;
6043;SDS011;3050;42.660;23.276;2023-07-31T12:46:55;2.40;;;2.30;;
6043;SDS011;3050;42.660;23.276;2023-07-31T12:49:25;2.53;;;2.42;;
6043;SDS011;3050;42.660;23.276;2023-07-31T12:51:57;2.78;;;2.67;;
6043;SDS011;3050;42.660;23.276;2023-07-31T12:54:26;2.40;;;2.30;;
6043;SDS011;3050;42.660;23.276;2023-07-31T12:56:53;2.92;;;2.80;;
6043;SDS011;3050;42.660;23.276;2023-07-31T12:59:20;3.15;;;2.90;;
6043;SDS011;3050;42.660;23.276;2023-07-31T13:01:48;2.83;;;2.63;;
6043;SDS011;3050;42.660;23.276;2023-07-31T13:04:15;3.20;;;3.00;;
6043;SDS011;3050;42.660;23.276;2023-07-31T13:06:42;2.97;;;2.88;;
6043;SDS011;3050;42.660;23.276;2023-07-31T13:09:09;3.13;;;3.03;;
6043;SDS011;3050;42.660;23.276;2023-07-31T13:11:38;5.28;;;3.70;;
6043;SDS011;3050;42.660;23.276;2023-07-31T13:14:04;3.78;;;3.47;;
6043;SDS011;3050;42.660;23.276;2023-07-31T13:16:32;4.72;;;2.88;;
6043;SDS011;3050;42.660;23.276;2023-07-31T13:19:00;2.75;;;2.45;;
6043;SDS011;3050;42.660;23.276;2023-07-31T13:21:28;2.83;;;2.63;;
6043;SDS011;3050;42.660;23.276;2023-07-31T13:23:59;2.70;;;2.60;;
6043;SDS011;3050;42.660;23.276;2023-07-31T13:26:27;2.60;;;2.50;;
6043;SDS011;3050;42.660;23.276;2023-07-31T13:29:00;2.83;;;2.53;;
6043;SDS011;3050;42.660;23.276;2023-07-31T13:31:27;2.88;;;2.40;;
6043;SDS011;3050;42.660;23.276;2023-07-31T13:33:56;2.70;;;2.58;;
6043;SDS011;3050;42.660;23.276;2023-07-31T13:36:24;1.90;;;1.80;;
6043;SDS011;3050;42.660;23.276;2023-07-31T13:38:52;2.25;;;2.15;;
6043;SDS011;3050;42.660;23.276;2023-07-31T13:41:20;2.90;;;2.15;;
6043;SDS011;3050;42.660;23.276;2023-07-31T13:43:50;2.67;;;2.58;;
6043;SDS011;3050;42.660;23.276;2023-07-31T14:43:09;2.00;;;1.90;;
6043;SDS011;3050;42.660;23.276;2023-07-31T14:46:23;3.70;;;1.60;;
6043;SDS011;3050;42.660;23.276;2023-07-31T14:48:54;2.08;;;1.98;;
6043;SDS011;3050;42.660;23.276;2023-07-31T14:51:27;1.70;;;1.70;;
6043;SDS011;3050;42.660;23.276;2023-07-31T14:54:07;1.65;;;1.65;;
6043;SDS011;3050;42.660;23.276;2023-07-31T14:56:38;2.05;;;1.95;;
6043;SDS011;3050;42.660;23.276;2023-07-31T14:59:06;1.90;;;1.80;;
6043;SDS011;3050;42.660;23.276;2023-07-31T15:01:36;2.22;;;2.13;;
6043;SDS011;3050;42.660;23.276;2023-07-31T15:04:03;5.85;;;1.90;;
6043;SDS011;3050;42.660;23.276;2023-07-31T15:06:32;1.95;;;1.85;;
6043;SDS011;3050;42.660;23.276;2023-07-31T15:09:00;1.98;;;1.88;;
6043;SDS011;3050;42.660;23.276;2023-07-31T15:11:28;1.58;;;1.58;;
6043;SDS011;3050;42.660;23.276;2023-07-31T15:14:03;1.60;;;1.50;;
6043;SDS011;3050;42.660;23.276;2023-07-31T15:16:31;1.65;;;1.60;;
6043;SDS011;3050;42.660;23.276;2023-07-31T15:19:02;1.55;;;1.33;;
6043;SDS011;3050;42.660;23.276;2023-07-31T15:21:32;7.07;;;1.50;;
6043;SDS011;3050;42.660;23.276;2023-07-31T15:24:04;1.45;;;1.35;;
6043;SDS011;3050;42.660;23.276;2023-07-31T15:26:31;1.40;;;1.40;;
6043;SDS011;3050;42.660;23.276;2023-07-31T15:29:00;1.30;;;1.30;;
6043;SDS011;3050;42.660;23.276;2023-07-31T15:31:28;1.00;;;1.00;;
6043;SDS011;3050;42.660;23.276;2023-07-31T15:33:55;1.30;;;1.30;;
6043;SDS011;3050;42.660;23.276;2023-07-31T15:36:30;1.35;;;1.35;;
6043;SDS011;3050;42.660;23.276;2023-07-31T15:38:58;1.55;;;1.00;;
6043;SDS011;3050;42.660;23.276;2023-07-31T15:41:25;1.77;;;1.67;;
6043;SDS011;3050;42.660;23.276;2023-07-31T15:43:51;1.30;;;1.30;;
6043;SDS011;3050;42.660;23.276;2023-07-31T15:46:19;1.38;;;1.20;;
6043;SDS011;3050;42.660;23.276;2023-07-31T15:48:52;1.42;;;1.33;;
6043;SDS011;3050;42.660;23.276;2023-07-31T15:51:31;1.33;;;1.25;;
6043;SDS011;3050;42.660;23.276;2023-07-31T15:54:01;1.70;;;1.60;;
6043;SDS011;3050;42.660;23.276;2023-07-31T15:56:31;2.08;;;1.42;;
6043;SDS011;3050;42.660;23.276;2023-07-31T15:59:17;1.25;;;1.25;;
6043;SDS011;3050;42.660;23.276;2023-07-31T16:01:50;1.30;;;1.30;;
6043;SDS011;3050;42.660;23.276;2023-07-31T16:04:22;1.15;;;1.15;;
6043;SDS011;3050;42.660;23.276;2023-07-31T16:06:56;5.72;;;1.40;;
6043;SDS011;3050;42.660;23.276;2023-07-31T16:09:32;2.17;;;1.30;;
6043;SDS011;3050;42.660;23.276;2023-07-31T16:12:01;1.05;;;1.05;;
6043;SDS011;3050;42.660;23.276;2023-07-31T16:14:28;1.55;;;1.05;;
6043;SDS011;3050;42.660;23.276;2023-07-31T16:16:55;1.10;;;1.10;;
6043;SDS011;3050;42.660;23.276;2023-07-31T16:19:25;1.13;;;1.00;;
6043;SDS011;3050;42.660;23.276;2023-07-31T16:27:32;1.27;;;1.20;;
6043;SDS011;3050;42.660;23.276;2023-07-31T16:30:04;1.02;;;1.02;;
6043;SDS011;3050;42.660;23.276;2023-07-31T16:32:35;2.20;;;1.20;;
6043;SDS011;3050;42.660;23.276;2023-07-31T16:35:04;3.58;;;3.33;;
6043;SDS011;3050;42.660;23.276;2023-07-31T16:37:35;2.45;;;1.38;;
6043;SDS011;3050;42.660;23.276;2023-07-31T16:40:12;1.17;;;1.17;;
6043;SDS011;3050;42.660;23.276;2023-07-31T16:42:41;3.72;;;1.38;;
6043;SDS011;3050;42.660;23.276;2023-07-31T16:45:08;1.60;;;1.20;;
6043;SDS011;3050;42.660;23.276;2023-07-31T16:47:35;1.17;;;1.17;;